sensor_id;sensor_type;location;lat;lon;timestamp;temperature;humidity
52211;DHT22;38179;52.756;6.906;2023-07-31T00:00:36;15.30;99.90
52211;DHT22;38179;52.756;6.906;2023-07-31T00:03:03;15.30;99.90
52211;DHT22;38179;52.756;6.906;2023-07-31T00:05:28;15.30;99.90
52211;DHT22;38179;52.756;6.906;2023-07-31T00:07:54;15.30;99.90
52211;DHT22;38179;52.756;6.906;2023-07-31T00:10:20;15.20;99.90
52211;DHT22;38179;52.756;6.906;2023-07-31T00:12:46;15.20;99.90
52211;DHT22;38179;52.756;6.906;2023-07-31T00:15:14;15.20;99.90
52211;DHT22;38179;52.756;6.906;2023-07-31T00:17:40;15.20;99.90
52211;DHT22;38179;52.756;6.906;2023-07-31T00:20:06;15.20;99.90
52211;DHT22;38179;52.756;6.906;2023-07-31T00:22:32;15.20;99.90
52211;DHT22;38179;52.756;6.906;2023-07-31T00:24:58;15.10;99.90
52211;DHT22;38179;52.756;6.906;2023-07-31T00:27:25;15.10;99.90
52211;DHT22;38179;52.756;6.906;2023-07-31T00:29:51;15.10;99.90
52211;DHT22;38179;52.756;6.906;2023-07-31T00:32:17;15.10;99.90
52211;DHT22;38179;52.756;6.906;2023-07-31T00:34:43;15.10;99.90
52211;DHT22;38179;52.756;6.906;2023-07-31T00:37:09;15.10;99.90
52211;DHT22;38179;52.756;6.906;2023-07-31T00:39:35;15.10;99.90
52211;DHT22;38179;52.756;6.906;2023-07-31T00:42:01;15.00;99.90
52211;DHT22;38179;52.756;6.906;2023-07-31T00:44:27;15.00;99.90
52211;DHT22;38179;52.756;6.906;2023-07-31T00:46:55;15.00;99.90
52211;DHT22;38179;52.756;6.906;2023-07-31T00:49:22;15.00;99.90
52211;DHT22;38179;52.756;6.906;2023-07-31T00:51:48;15.00;99.90
52211;DHT22;38179;52.756;6.906;2023-07-31T00:54:14;15.00;99.90
52211;DHT22;38179;52.756;6.906;2023-07-31T00:56:41;14.90;99.90
52211;DHT22;38179;52.756;6.906;2023-07-31T00:59:07;14.90;99.90
52211;DHT22;38179;52.756;6.906;2023-07-31T01:01:33;14.90;99.90
52211;DHT22;38179;52.756;6.906;2023-07-31T01:03:59;14.90;99.90
52211;DHT22;38179;52.756;6.906;2023-07-31T01:06:40;14.90;99.90
52211;DHT22;38179;52.756;6.906;2023-07-31T01:09:20;14.90;99.90
52211;DHT22;38179;52.756;6.906;2023-07-31T01:11:53;14.90;99.90
52211;DHT22;38179;52.756;6.906;2023-07-31T01:14:19;14.90;99.90
52211;DHT22;38179;52.756;6.906;2023-07-31T01:16:45;14.80;99.90
52211;DHT22;38179;52.756;6.906;2023-07-31T01:19:11;14.80;99.90
52211;DHT22;38179;52.756;6.906;2023-07-31T01:24:35;14.80;99.90
52211;DHT22;38179;52.756;6.906;2023-07-31T01:27:10;14.80;99.90
52211;DHT22;38179;52.756;6.906;2023-07-31T01:32:05;14.80;99.90
52211;DHT22;38179;52.756;6.906;2023-07-31T01:34:41;14.70;99.90
52211;DHT22;38179;52.756;6.906;2023-07-31T01:37:07;14.70;99.90
52211;DHT22;38179;52.756;6.906;2023-07-31T01:39:34;14.70;99.90
52211;DHT22;38179;52.756;6.906;2023-07-31T01:41:59;14.70;99.90
52211;DHT22;38179;52.756;6.906;2023-07-31T01:44:25;14.70;99.90
52211;DHT22;38179;52.756;6.906;2023-07-31T01:46:51;14.70;99.90
52211;DHT22;38179;52.756;6.906;2023-07-31T01:49:20;14.70;99.90
52211;DHT22;38179;52.756;6.906;2023-07-31T01:51:46;14.70;99.90
52211;DHT22;38179;52.756;6.906;2023-07-31T01:54:12;14.70;99.90
52211;DHT22;38179;52.756;6.906;2023-07-31T01:56:38;14.70;99.90
52211;DHT22;38179;52.756;6.906;2023-07-31T01:59:04;14.70;99.90
52211;DHT22;38179;52.756;6.906;2023-07-31T02:01:30;14.70;99.90
52211;DHT22;38179;52.756;6.906;2023-07-31T02:03:55;14.70;99.90
52211;DHT22;38179;52.756;6.906;2023-07-31T02:06:21;14.70;99.90
52211;DHT22;38179;52.756;6.906;2023-07-31T02:08:48;14.70;99.90
52211;DHT22;38179;52.756;6.906;2023-07-31T02:11:14;14.70;99.90
52211;DHT22;38179;52.756;6.906;2023-07-31T02:13:40;14.70;99.90
52211;DHT22;38179;52.756;6.906;2023-07-31T02:16:07;14.70;99.90
52211;DHT22;38179;52.756;6.906;2023-07-31T02:18:33;14.70;99.90
52211;DHT22;38179;52.756;6.906;2023-07-31T02:20:58;14.80;99.90
52211;DHT22;38179;52.756;6.906;2023-07-31T02:23:27;14.70;99.90
52211;DHT22;38179;52.756;6.906;2023-07-31T02:25:53;14.70;99.90
52211;DHT22;38179;52.756;6.906;2023-07-31T02:28:19;14.70;99.90
52211;DHT22;38179;52.756;6.906;2023-07-31T02:30:45;14.80;99.90
52211;DHT22;38179;52.756;6.906;2023-07-31T02:33:14;14.80;99.90
52211;DHT22;38179;52.756;6.906;2023-07-31T02:35:43;14.70;99.90
52211;DHT22;38179;52.756;6.906;2023-07-31T02:38:09;14.80;99.90
52211;DHT22;38179;52.756;6.906;2023-07-31T02:40:35;14.80;99.90
52211;DHT22;38179;52.756;6.906;2023-07-31T02:43:01;14.80;99.90
52211;DHT22;38179;52.756;6.906;2023-07-31T02:45:27;14.80;99.90
52211;DHT22;38179;52.756;6.906;2023-07-31T02:47:53;14.80;99.90
52211;DHT22;38179;52.756;6.906;2023-07-31T02:50:18;14.80;99.90
52211;DHT22;38179;52.756;6.906;2023-07-31T02:52:46;14.80;99.90
52211;DHT22;38179;52.756;6.906;2023-07-31T02:55:12;14.90;99.90
52211;DHT22;38179;52.756;6.906;2023-07-31T02:57:37;14.90;99.90
52211;DHT22;38179;52.756;6.906;2023-07-31T03:00:04;14.90;99.90
52211;DHT22;38179;52.756;6.906;2023-07-31T03:02:32;14.90;99.90
52211;DHT22;38179;52.756;6.906;2023-07-31T03:04:58;14.90;99.90
52211;DHT22;38179;52.756;6.906;2023-07-31T03:07:23;15.00;99.90
52211;DHT22;38179;52.756;6.906;2023-07-31T03:09:49;15.00;99.90
52211;DHT22;38179;52.756;6.906;2023-07-31T03:12:15;15.00;99.90
52211;DHT22;38179;52.756;6.906;2023-07-31T03:14:41;15.00;99.90
52211;DHT22;38179;52.756;6.906;2023-07-31T03:17:07;15.10;99.90
52211;DHT22;38179;52.756;6.906;2023-07-31T03:19:33;15.10;99.90
52211;DHT22;38179;52.756;6.906;2023-07-31T03:21:59;15.10;99.90
52211;DHT22;38179;52.756;6.906;2023-07-31T03:24:26;15.10;99.90
52211;DHT22;38179;52.756;6.906;2023-07-31T03:26:52;15.10;99.90
52211;DHT22;38179;52.756;6.906;2023-07-31T03:29:18;15.10;99.90
52211;DHT22;38179;52.756;6.906;2023-07-31T03:31:43;15.10;99.90
52211;DHT22;38179;52.756;6.906;2023-07-31T03:34:09;15.20;99.90
52211;DHT22;38179;52.756;6.906;2023-07-31T03:36:35;15.20;99.90
52211;DHT22;38179;52.756;6.906;2023-07-31T03:39:01;15.20;99.90
52211;DHT22;38179;52.756;6.906;2023-07-31T03:41:27;15.20;99.90
52211;DHT22;38179;52.756;6.906;2023-07-31T03:43:53;15.20;99.90
52211;DHT22;38179;52.756;6.906;2023-07-31T03:46:22;15.20;99.90
52211;DHT22;38179;52.756;6.906;2023-07-31T03:48:49;15.20;99.90
52211;DHT22;38179;52.756;6.906;2023-07-31T03:51:15;15.20;99.90
52211;DHT22;38179;52.756;6.906;2023-07-31T03:53:40;15.20;99.90
52211;DHT22;38179;52.756;6.906;2023-07-31T03:56:06;15.20;99.90
52211;DHT22;38179;52.756;6.906;2023-07-31T03:58:32;15.20;99.90
52211;DHT22;38179;52.756;6.906;2023-07-31T04:00:58;15.20;99.90
52211;DHT22;38179;52.756;6.906;2023-07-31T04:03:24;15.20;99.90
52211;DHT22;38179;52.756;6.906;2023-07-31T04:05:50;15.20;99.90
52211;DHT22;38179;52.756;6.906;2023-07-31T04:08:16;15.30;99.90
52211;DHT22;38179;52.756;6.906;2023-07-31T04:10:42;15.30;99.90
52211;DHT22;38179;52.756;6.906;2023-07-31T04:13:08;15.30;99.90
52211;DHT22;38179;52.756;6.906;2023-07-31T04:15:34;15.30;99.90
52211;DHT22;38179;52.756;6.906;2023-07-31T04:18:00;15.30;99.90
52211;DHT22;38179;52.756;6.906;2023-07-31T04:20:25;15.30;99.90
52211;DHT22;38179;52.756;6.906;2023-07-31T04:22:51;15.30;99.90
52211;DHT22;38179;52.756;6.906;2023-07-31T04:25:17;15.40;99.90
52211;DHT22;38179;52.756;6.906;2023-07-31T04:27:44;15.40;99.90
52211;DHT22;38179;52.756;6.906;2023-07-31T04:30:10;15.40;99.90
52211;DHT22;38179;52.756;6.906;2023-07-31T04:32:36;15.40;99.90
52211;DHT22;38179;52.756;6.906;2023-07-31T04:35:03;15.40;99.90
52211;DHT22;38179;52.756;6.906;2023-07-31T04:37:29;15.40;99.90
52211;DHT22;38179;52.756;6.906;2023-07-31T04:39:54;15.50;99.90
52211;DHT22;38179;52.756;6.906;2023-07-31T04:42:23;15.50;99.90
52211;DHT22;38179;52.756;6.906;2023-07-31T04:44:49;15.50;99.90
52211;DHT22;38179;52.756;6.906;2023-07-31T04:47:15;15.50;99.90
52211;DHT22;38179;52.756;6.906;2023-07-31T04:49:41;15.50;99.90
52211;DHT22;38179;52.756;6.906;2023-07-31T04:52:07;15.50;99.90
52211;DHT22;38179;52.756;6.906;2023-07-31T04:54:32;15.50;99.90
52211;DHT22;38179;52.756;6.906;2023-07-31T04:56:58;15.60;99.90
52211;DHT22;38179;52.756;6.906;2023-07-31T04:59:24;15.60;99.90
52211;DHT22;38179;52.756;6.906;2023-07-31T05:01:50;15.60;99.90
52211;DHT22;38179;52.756;6.906;2023-07-31T05:04:16;15.60;99.90
52211;DHT22;38179;52.756;6.906;2023-07-31T05:06:42;15.70;99.90
52211;DHT22;38179;52.756;6.906;2023-07-31T05:09:08;15.70;99.90
52211;DHT22;38179;52.756;6.906;2023-07-31T05:11:37;15.70;99.90
52211;DHT22;38179;52.756;6.906;2023-07-31T05:14:03;15.70;99.90
52211;DHT22;38179;52.756;6.906;2023-07-31T05:16:29;15.70;99.90
52211;DHT22;38179;52.756;6.906;2023-07-31T05:18:55;15.80;99.90
52211;DHT22;38179;52.756;6.906;2023-07-31T05:21:22;15.80;99.90
52211;DHT22;38179;52.756;6.906;2023-07-31T05:23:49;15.80;99.90
52211;DHT22;38179;52.756;6.906;2023-07-31T05:26:15;15.80;99.90
52211;DHT22;38179;52.756;6.906;2023-07-31T05:28:41;15.80;99.90
52211;DHT22;38179;52.756;6.906;2023-07-31T05:31:07;15.80;99.90
52211;DHT22;38179;52.756;6.906;2023-07-31T05:33:33;15.80;99.90
52211;DHT22;38179;52.756;6.906;2023-07-31T05:35:59;15.90;99.90
52211;DHT22;38179;52.756;6.906;2023-07-31T05:38:25;15.90;99.90
52211;DHT22;38179;52.756;6.906;2023-07-31T05:40:51;15.90;99.90
52211;DHT22;38179;52.756;6.906;2023-07-31T05:43:17;15.90;99.90
52211;DHT22;38179;52.756;6.906;2023-07-31T05:45:43;15.90;99.90
52211;DHT22;38179;52.756;6.906;2023-07-31T05:48:10;15.90;99.90
52211;DHT22;38179;52.756;6.906;2023-07-31T05:50:35;15.90;99.90
52211;DHT22;38179;52.756;6.906;2023-07-31T05:53:04;16.00;99.90
52211;DHT22;38179;52.756;6.906;2023-07-31T05:55:30;16.00;99.90
52211;DHT22;38179;52.756;6.906;2023-07-31T05:57:56;15.90;99.90
52211;DHT22;38179;52.756;6.906;2023-07-31T06:00:22;15.90;99.90
52211;DHT22;38179;52.756;6.906;2023-07-31T06:02:48;16.00;99.90
52211;DHT22;38179;52.756;6.906;2023-07-31T06:05:14;16.00;99.90
52211;DHT22;38179;52.756;6.906;2023-07-31T06:07:40;16.00;99.90
52211;DHT22;38179;52.756;6.906;2023-07-31T06:10:06;16.00;99.90
52211;DHT22;38179;52.756;6.906;2023-07-31T06:12:34;16.00;99.90
52211;DHT22;38179;52.756;6.906;2023-07-31T06:15:00;16.00;99.90
52211;DHT22;38179;52.756;6.906;2023-07-31T06:17:26;16.00;99.90
52211;DHT22;38179;52.756;6.906;2023-07-31T06:19:53;16.00;99.90
52211;DHT22;38179;52.756;6.906;2023-07-31T06:22:19;16.00;99.90
52211;DHT22;38179;52.756;6.906;2023-07-31T06:24:46;16.00;99.90
52211;DHT22;38179;52.756;6.906;2023-07-31T06:27:12;16.00;99.90
52211;DHT22;38179;52.756;6.906;2023-07-31T06:29:38;16.00;99.90
52211;DHT22;38179;52.756;6.906;2023-07-31T06:32:07;16.00;99.90
52211;DHT22;38179;52.756;6.906;2023-07-31T06:34:33;16.00;99.90
52211;DHT22;38179;52.756;6.906;2023-07-31T06:36:58;16.00;99.90
52211;DHT22;38179;52.756;6.906;2023-07-31T06:39:24;16.00;99.90
52211;DHT22;38179;52.756;6.906;2023-07-31T06:41:53;16.00;99.90
52211;DHT22;38179;52.756;6.906;2023-07-31T06:44:19;16.00;99.90
52211;DHT22;38179;52.756;6.906;2023-07-31T06:46:45;16.00;99.90
52211;DHT22;38179;52.756;6.906;2023-07-31T06:49:11;16.00;99.90
52211;DHT22;38179;52.756;6.906;2023-07-31T06:51:37;16.00;99.90
52211;DHT22;38179;52.756;6.906;2023-07-31T06:54:04;16.00;99.90
52211;DHT22;38179;52.756;6.906;2023-07-31T06:56:30;16.00;99.90
52211;DHT22;38179;52.756;6.906;2023-07-31T06:58:56;16.00;99.90
52211;DHT22;38179;52.756;6.906;2023-07-31T07:01:22;16.00;99.90
52211;DHT22;38179;52.756;6.906;2023-07-31T07:03:48;16.00;99.90
52211;DHT22;38179;52.756;6.906;2023-07-31T07:06:17;16.00;99.90
52211;DHT22;38179;52.756;6.906;2023-07-31T07:08:43;15.90;99.90
52211;DHT22;38179;52.756;6.906;2023-07-31T07:11:09;15.90;99.90
52211;DHT22;38179;52.756;6.906;2023-07-31T07:13:35;15.80;99.90
52211;DHT22;38179;52.756;6.906;2023-07-31T07:16:01;15.80;99.90
52211;DHT22;38179;52.756;6.906;2023-07-31T07:18:27;15.80;99.90
52211;DHT22;38179;52.756;6.906;2023-07-31T07:20:56;15.70;99.90
52211;DHT22;38179;52.756;6.906;2023-07-31T07:23:24;15.70;99.90
52211;DHT22;38179;52.756;6.906;2023-07-31T07:25:50;15.70;99.90
52211;DHT22;38179;52.756;6.906;2023-07-31T07:28:16;15.70;99.90
52211;DHT22;38179;52.756;6.906;2023-07-31T07:30:42;15.70;99.90
52211;DHT22;38179;52.756;6.906;2023-07-31T07:33:08;15.70;99.90
52211;DHT22;38179;52.756;6.906;2023-07-31T07:35:35;15.70;99.90
52211;DHT22;38179;52.756;6.906;2023-07-31T07:38:04;15.70;99.90
52211;DHT22;38179;52.756;6.906;2023-07-31T07:40:30;15.70;99.90
52211;DHT22;38179;52.756;6.906;2023-07-31T07:42:56;15.70;99.90
52211;DHT22;38179;52.756;6.906;2023-07-31T07:45:22;15.70;99.90
52211;DHT22;38179;52.756;6.906;2023-07-31T07:47:48;15.80;99.90
52211;DHT22;38179;52.756;6.906;2023-07-31T07:50:13;15.70;99.90
52211;DHT22;38179;52.756;6.906;2023-07-31T07:52:39;15.80;99.90
52211;DHT22;38179;52.756;6.906;2023-07-31T07:55:05;15.80;99.90
52211;DHT22;38179;52.756;6.906;2023-07-31T07:57:31;15.80;99.90
52211;DHT22;38179;52.756;6.906;2023-07-31T07:59:57;15.80;99.90
52211;DHT22;38179;52.756;6.906;2023-07-31T08:02:23;15.80;99.90
52211;DHT22;38179;52.756;6.906;2023-07-31T08:04:49;15.80;99.90
52211;DHT22;38179;52.756;6.906;2023-07-31T08:07:15;15.90;99.90
52211;DHT22;38179;52.756;6.906;2023-07-31T08:09:41;15.90;99.90
52211;DHT22;38179;52.756;6.906;2023-07-31T08:12:07;15.90;99.90
52211;DHT22;38179;52.756;6.906;2023-07-31T08:17:07;16.00;99.90
52211;DHT22;38179;52.756;6.906;2023-07-31T08:19:33;16.00;99.90
52211;DHT22;38179;52.756;6.906;2023-07-31T08:21:59;16.00;99.90
52211;DHT22;38179;52.756;6.906;2023-07-31T08:24:25;16.00;99.90
52211;DHT22;38179;52.756;6.906;2023-07-31T08:26:51;16.00;99.90
52211;DHT22;38179;52.756;6.906;2023-07-31T08:29:17;16.00;99.90
52211;DHT22;38179;52.756;6.906;2023-07-31T08:31:43;16.00;99.90
52211;DHT22;38179;52.756;6.906;2023-07-31T08:34:09;16.00;99.90
52211;DHT22;38179;52.756;6.906;2023-07-31T08:36:34;16.00;99.90
52211;DHT22;38179;52.756;6.906;2023-07-31T08:39:00;16.00;99.90
52211;DHT22;38179;52.756;6.906;2023-07-31T08:41:27;16.00;99.90
52211;DHT22;38179;52.756;6.906;2023-07-31T08:43:53;16.10;99.90
52211;DHT22;38179;52.756;6.906;2023-07-31T08:46:21;16.10;99.90
52211;DHT22;38179;52.756;6.906;2023-07-31T08:48:47;16.20;99.90
52211;DHT22;38179;52.756;6.906;2023-07-31T08:51:14;16.20;99.90
52211;DHT22;38179;52.756;6.906;2023-07-31T08:53:40;16.20;99.90
52211;DHT22;38179;52.756;6.906;2023-07-31T08:56:07;16.20;99.90
52211;DHT22;38179;52.756;6.906;2023-07-31T08:58:34;16.30;99.90
52211;DHT22;38179;52.756;6.906;2023-07-31T09:01:01;16.30;99.90
52211;DHT22;38179;52.756;6.906;2023-07-31T09:03:33;16.40;99.90
52211;DHT22;38179;52.756;6.906;2023-07-31T09:05:59;16.40;99.90
52211;DHT22;38179;52.756;6.906;2023-07-31T09:08:27;16.40;99.90
52211;DHT22;38179;52.756;6.906;2023-07-31T09:10:59;16.40;99.90
52211;DHT22;38179;52.756;6.906;2023-07-31T09:13:28;16.50;99.90
52211;DHT22;38179;52.756;6.906;2023-07-31T09:15:54;16.50;99.90
52211;DHT22;38179;52.756;6.906;2023-07-31T09:18:19;16.50;99.90
52211;DHT22;38179;52.756;6.906;2023-07-31T09:21:08;16.50;99.90
52211;DHT22;38179;52.756;6.906;2023-07-31T09:23:44;16.60;99.90
52211;DHT22;38179;52.756;6.906;2023-07-31T09:26:10;16.60;99.90
52211;DHT22;38179;52.756;6.906;2023-07-31T09:28:36;16.60;99.90
52211;DHT22;38179;52.756;6.906;2023-07-31T09:31:02;16.60;99.90
52211;DHT22;38179;52.756;6.906;2023-07-31T09:33:29;16.60;99.90
52211;DHT22;38179;52.756;6.906;2023-07-31T09:35:58;16.60;99.90
52211;DHT22;38179;52.756;6.906;2023-07-31T09:38:26;16.60;99.90
52211;DHT22;38179;52.756;6.906;2023-07-31T09:40:52;16.70;99.90
52211;DHT22;38179;52.756;6.906;2023-07-31T09:43:20;16.70;99.90
52211;DHT22;38179;52.756;6.906;2023-07-31T09:45:47;16.70;99.90
52211;DHT22;38179;52.756;6.906;2023-07-31T09:48:15;16.70;99.90
52211;DHT22;38179;52.756;6.906;2023-07-31T09:50:46;16.80;99.90
52211;DHT22;38179;52.756;6.906;2023-07-31T09:53:12;16.70;99.90
52211;DHT22;38179;52.756;6.906;2023-07-31T09:55:40;16.70;99.90
52211;DHT22;38179;52.756;6.906;2023-07-31T09:58:07;16.80;99.90
52211;DHT22;38179;52.756;6.906;2023-07-31T10:00:34;16.80;99.90
52211;DHT22;38179;52.756;6.906;2023-07-31T10:03:01;16.80;99.90
52211;DHT22;38179;52.756;6.906;2023-07-31T10:05:34;16.80;99.90
52211;DHT22;38179;52.756;6.906;2023-07-31T10:08:00;16.80;99.90
52211;DHT22;38179;52.756;6.906;2023-07-31T10:10:26;16.90;99.90
52211;DHT22;38179;52.756;6.906;2023-07-31T10:12:54;16.90;99.90
52211;DHT22;38179;52.756;6.906;2023-07-31T10:15:20;16.90;99.90
52211;DHT22;38179;52.756;6.906;2023-07-31T10:17:47;17.00;99.90
52211;DHT22;38179;52.756;6.906;2023-07-31T10:20:14;17.00;99.90
52211;DHT22;38179;52.756;6.906;2023-07-31T10:22:42;17.00;99.90
52211;DHT22;38179;52.756;6.906;2023-07-31T10:25:09;17.00;99.90
52211;DHT22;38179;52.756;6.906;2023-07-31T10:27:36;17.10;99.90
52211;DHT22;38179;52.756;6.906;2023-07-31T10:30:26;17.10;99.90
52211;DHT22;38179;52.756;6.906;2023-07-31T10:32:53;17.10;99.90
52211;DHT22;38179;52.756;6.906;2023-07-31T10:35:20;17.20;99.90
52211;DHT22;38179;52.756;6.906;2023-07-31T10:37:48;17.20;99.90
52211;DHT22;38179;52.756;6.906;2023-07-31T10:40:27;17.30;99.90
52211;DHT22;38179;52.756;6.906;2023-07-31T10:42:54;17.30;99.90
52211;DHT22;38179;52.756;6.906;2023-07-31T10:48:02;17.40;99.90
52211;DHT22;38179;52.756;6.906;2023-07-31T10:50:30;17.40;99.90
52211;DHT22;38179;52.756;6.906;2023-07-31T10:52:59;17.40;99.90
52211;DHT22;38179;52.756;6.906;2023-07-31T10:55:42;17.40;99.90
52211;DHT22;38179;52.756;6.906;2023-07-31T10:58:13;17.50;99.90
52211;DHT22;38179;52.756;6.906;2023-07-31T11:00:44;17.60;99.90
52211;DHT22;38179;52.756;6.906;2023-07-31T11:08:28;17.70;99.90
52211;DHT22;38179;52.756;6.906;2023-07-31T11:11:07;17.70;99.90
52211;DHT22;38179;52.756;6.906;2023-07-31T11:13:45;17.70;99.90
52211;DHT22;38179;52.756;6.906;2023-07-31T11:16:12;17.80;99.90
52211;DHT22;38179;52.756;6.906;2023-07-31T11:18:40;17.80;99.90
52211;DHT22;38179;52.756;6.906;2023-07-31T11:21:08;17.80;99.90
52211;DHT22;38179;52.756;6.906;2023-07-31T11:23:36;17.80;99.90
52211;DHT22;38179;52.756;6.906;2023-07-31T11:26:04;17.80;99.90
52211;DHT22;38179;52.756;6.906;2023-07-31T11:28:32;17.80;99.90
52211;DHT22;38179;52.756;6.906;2023-07-31T11:30:59;17.80;99.90
52211;DHT22;38179;52.756;6.906;2023-07-31T11:33:26;17.80;99.90
52211;DHT22;38179;52.756;6.906;2023-07-31T11:35:52;17.80;99.90
52211;DHT22;38179;52.756;6.906;2023-07-31T11:38:26;17.80;99.90
52211;DHT22;38179;52.756;6.906;2023-07-31T11:40:53;17.80;99.90
52211;DHT22;38179;52.756;6.906;2023-07-31T11:43:20;17.80;99.90
52211;DHT22;38179;52.756;6.906;2023-07-31T11:45:54;17.90;99.90
52211;DHT22;38179;52.756;6.906;2023-07-31T11:48:22;18.00;99.90
52211;DHT22;38179;52.756;6.906;2023-07-31T11:50:53;18.00;99.90
52211;DHT22;38179;52.756;6.906;2023-07-31T11:53:22;18.10;99.90
52211;DHT22;38179;52.756;6.906;2023-07-31T11:55:49;18.10;99.90
52211;DHT22;38179;52.756;6.906;2023-07-31T11:58:16;18.00;99.90
52211;DHT22;38179;52.756;6.906;2023-07-31T12:00:43;18.00;99.90
52211;DHT22;38179;52.756;6.906;2023-07-31T12:03:10;18.00;99.90
52211;DHT22;38179;52.756;6.906;2023-07-31T12:05:37;18.00;99.90
52211;DHT22;38179;52.756;6.906;2023-07-31T12:08:10;17.90;99.90
52211;DHT22;38179;52.756;6.906;2023-07-31T12:10:37;17.90;99.90
52211;DHT22;38179;52.756;6.906;2023-07-31T12:13:11;17.80;99.90
52211;DHT22;38179;52.756;6.906;2023-07-31T12:15:44;17.80;99.90
52211;DHT22;38179;52.756;6.906;2023-07-31T12:18:13;17.80;99.90
52211;DHT22;38179;52.756;6.906;2023-07-31T12:20:59;17.90;99.90
52211;DHT22;38179;52.756;6.906;2023-07-31T12:26:14;18.00;99.90
52211;DHT22;38179;52.756;6.906;2023-07-31T12:28:41;17.90;99.90
52211;DHT22;38179;52.756;6.906;2023-07-31T12:31:13;17.90;99.90
52211;DHT22;38179;52.756;6.906;2023-07-31T12:33:40;17.90;99.90
52211;DHT22;38179;52.756;6.906;2023-07-31T12:36:15;17.90;99.90
52211;DHT22;38179;52.756;6.906;2023-07-31T12:38:42;18.00;99.90
52211;DHT22;38179;52.756;6.906;2023-07-31T12:41:08;17.90;99.90
52211;DHT22;38179;52.756;6.906;2023-07-31T12:43:35;17.90;99.90
52211;DHT22;38179;52.756;6.906;2023-07-31T12:46:01;17.90;99.90
52211;DHT22;38179;52.756;6.906;2023-07-31T12:48:28;17.90;99.90
52211;DHT22;38179;52.756;6.906;2023-07-31T12:50:54;17.90;99.90
52211;DHT22;38179;52.756;6.906;2023-07-31T12:53:19;17.90;99.90
52211;DHT22;38179;52.756;6.906;2023-07-31T12:55:45;17.90;99.90
52211;DHT22;38179;52.756;6.906;2023-07-31T12:58:12;18.00;99.90
52211;DHT22;38179;52.756;6.906;2023-07-31T13:00:37;17.90;99.90
52211;DHT22;38179;52.756;6.906;2023-07-31T13:03:04;18.00;99.90
52211;DHT22;38179;52.756;6.906;2023-07-31T13:05:30;17.90;99.90
52211;DHT22;38179;52.756;6.906;2023-07-31T13:07:56;17.90;99.90
52211;DHT22;38179;52.756;6.906;2023-07-31T13:10:23;17.90;99.90
52211;DHT22;38179;52.756;6.906;2023-07-31T13:12:49;18.00;99.90
52211;DHT22;38179;52.756;6.906;2023-07-31T13:15:15;18.00;99.90
52211;DHT22;38179;52.756;6.906;2023-07-31T13:17:41;18.00;99.90
52211;DHT22;38179;52.756;6.906;2023-07-31T13:20:07;18.00;99.90
52211;DHT22;38179;52.756;6.906;2023-07-31T13:22:33;18.10;99.90
52211;DHT22;38179;52.756;6.906;2023-07-31T13:24:59;18.10;99.90
52211;DHT22;38179;52.756;6.906;2023-07-31T13:27:28;18.10;99.90
52211;DHT22;38179;52.756;6.906;2023-07-31T13:29:55;18.20;99.90
52211;DHT22;38179;52.756;6.906;2023-07-31T13:32:22;18.20;99.90
52211;DHT22;38179;52.756;6.906;2023-07-31T13:34:48;18.20;99.90
52211;DHT22;38179;52.756;6.906;2023-07-31T13:37:15;18.30;99.90
52211;DHT22;38179;52.756;6.906;2023-07-31T13:39:42;18.30;99.90
52211;DHT22;38179;52.756;6.906;2023-07-31T13:42:09;18.30;99.90
52211;DHT22;38179;52.756;6.906;2023-07-31T13:44:41;18.20;99.90
52211;DHT22;38179;52.756;6.906;2023-07-31T13:47:10;18.20;99.90
52211;DHT22;38179;52.756;6.906;2023-07-31T13:49:36;18.10;99.90
52211;DHT22;38179;52.756;6.906;2023-07-31T13:52:04;18.00;99.90
52211;DHT22;38179;52.756;6.906;2023-07-31T13:54:30;18.00;99.90
52211;DHT22;38179;52.756;6.906;2023-07-31T13:56:56;18.00;99.90
52211;DHT22;38179;52.756;6.906;2023-07-31T13:59:22;18.00;99.90
52211;DHT22;38179;52.756;6.906;2023-07-31T14:01:48;18.00;99.90
52211;DHT22;38179;52.756;6.906;2023-07-31T14:04:19;18.00;99.90
52211;DHT22;38179;52.756;6.906;2023-07-31T14:06:46;18.00;99.90
52211;DHT22;38179;52.756;6.906;2023-07-31T14:09:13;18.00;99.90
52211;DHT22;38179;52.756;6.906;2023-07-31T14:11:40;18.10;99.90
52211;DHT22;38179;52.756;6.906;2023-07-31T14:14:05;18.10;99.90
52211;DHT22;38179;52.756;6.906;2023-07-31T14:16:31;18.20;99.90
52211;DHT22;38179;52.756;6.906;2023-07-31T14:18:57;18.20;99.90
52211;DHT22;38179;52.756;6.906;2023-07-31T14:21:25;18.30;99.90
52211;DHT22;38179;52.756;6.906;2023-07-31T14:23:51;18.30;99.90
52211;DHT22;38179;52.756;6.906;2023-07-31T14:26:17;18.40;99.90
52211;DHT22;38179;52.756;6.906;2023-07-31T14:28:43;18.40;99.90
52211;DHT22;38179;52.756;6.906;2023-07-31T14:31:09;18.40;99.90
52211;DHT22;38179;52.756;6.906;2023-07-31T14:33:35;18.40;99.90
52211;DHT22;38179;52.756;6.906;2023-07-31T14:36:01;18.40;99.90
52211;DHT22;38179;52.756;6.906;2023-07-31T14:38:27;18.40;99.90
52211;DHT22;38179;52.756;6.906;2023-07-31T14:40:53;18.50;99.90
52211;DHT22;38179;52.756;6.906;2023-07-31T14:43:19;18.50;99.90
52211;DHT22;38179;52.756;6.906;2023-07-31T14:45:45;18.60;99.90
52211;DHT22;38179;52.756;6.906;2023-07-31T14:48:12;18.60;99.90
52211;DHT22;38179;52.756;6.906;2023-07-31T14:50:38;18.70;99.90
52211;DHT22;38179;52.756;6.906;2023-07-31T14:53:04;18.60;99.90
52211;DHT22;38179;52.756;6.906;2023-07-31T14:55:30;18.70;99.90
52211;DHT22;38179;52.756;6.906;2023-07-31T14:57:56;18.70;99.90
52211;DHT22;38179;52.756;6.906;2023-07-31T15:00:23;18.70;99.90
52211;DHT22;38179;52.756;6.906;2023-07-31T15:02:50;18.60;99.90
52211;DHT22;38179;52.756;6.906;2023-07-31T15:05:16;18.70;99.90
52211;DHT22;38179;52.756;6.906;2023-07-31T15:07:42;18.70;99.90
52211;DHT22;38179;52.756;6.906;2023-07-31T15:10:08;18.70;99.90
52211;DHT22;38179;52.756;6.906;2023-07-31T15:12:34;18.60;99.90
52211;DHT22;38179;52.756;6.906;2023-07-31T15:15:00;18.70;99.90
52211;DHT22;38179;52.756;6.906;2023-07-31T15:17:25;18.60;99.90
52211;DHT22;38179;52.756;6.906;2023-07-31T15:19:52;18.60;99.90
52211;DHT22;38179;52.756;6.906;2023-07-31T15:22:17;18.60;99.90
52211;DHT22;38179;52.756;6.906;2023-07-31T15:24:43;18.60;99.90
52211;DHT22;38179;52.756;6.906;2023-07-31T15:27:09;18.60;99.90
52211;DHT22;38179;52.756;6.906;2023-07-31T15:29:35;18.60;99.90
52211;DHT22;38179;52.756;6.906;2023-07-31T15:32:04;18.50;99.90
52211;DHT22;38179;52.756;6.906;2023-07-31T15:34:30;18.50;99.90
52211;DHT22;38179;52.756;6.906;2023-07-31T15:36:56;18.50;99.90
52211;DHT22;38179;52.756;6.906;2023-07-31T15:39:22;18.40;99.90
52211;DHT22;38179;52.756;6.906;2023-07-31T15:41:48;18.40;99.90
52211;DHT22;38179;52.756;6.906;2023-07-31T15:44:14;18.30;99.90
52211;DHT22;38179;52.756;6.906;2023-07-31T15:46:40;18.30;99.90